sensor_id;sensor_type;location;lat;lon;timestamp;P1;durP1;ratioP1;P2;durP2;ratioP2
57317;SDS011;43157;50.982;18.132;2023-02-18T00:01:20;9.60;;;2.30;;
57317;SDS011;43157;50.982;18.132;2023-02-18T00:03:47;7.00;;;1.20;;
57317;SDS011;43157;50.982;18.132;2023-02-18T00:06:13;6.90;;;1.20;;
57317;SDS011;43157;50.982;18.132;2023-02-18T00:08:41;11.60;;;1.60;;
57317;SDS011;43157;50.982;18.132;2023-02-18T00:11:07;10.40;;;2.00;;
57317;SDS011;43157;50.982;18.132;2023-02-18T00:13:33;10.80;;;2.30;;
57317;SDS011;43157;50.982;18.132;2023-02-18T00:16:02;10.20;;;1.60;;
57317;SDS011;43157;50.982;18.132;2023-02-18T00:18:29;5.30;;;0.80;;
57317;SDS011;43157;50.982;18.132;2023-02-18T00:20:55;5.10;;;0.70;;
57317;SDS011;43157;50.982;18.132;2023-02-18T00:23:21;8.30;;;1.30;;
57317;SDS011;43157;50.982;18.132;2023-02-18T00:26:00;6.70;;;0.90;;
57317;SDS011;43157;50.982;18.132;2023-02-18T00:28:26;4.60;;;0.90;;
57317;SDS011;43157;50.982;18.132;2023-02-18T00:30:52;6.70;;;1.30;;
57317;SDS011;43157;50.982;18.132;2023-02-18T00:33:18;7.50;;;1.20;;
57317;SDS011;43157;50.982;18.132;2023-02-18T00:35:44;7.90;;;1.50;;
57317;SDS011;43157;50.982;18.132;2023-02-18T00:38:09;7.20;;;1.00;;
57317;SDS011;43157;50.982;18.132;2023-02-18T00:40:38;5.80;;;0.60;;
57317;SDS011;43157;50.982;18.132;2023-02-18T00:43:04;6.20;;;1.20;;
57317;SDS011;43157;50.982;18.132;2023-02-18T00:45:30;7.20;;;1.20;;
57317;SDS011;43157;50.982;18.132;2023-02-18T00:47:56;8.80;;;1.10;;
57317;SDS011;43157;50.982;18.132;2023-02-18T00:50:22;7.80;;;1.00;;
57317;SDS011;43157;50.982;18.132;2023-02-18T00:52:47;8.50;;;1.40;;
57317;SDS011;43157;50.982;18.132;2023-02-18T00:55:13;7.80;;;1.30;;
57317;SDS011;43157;50.982;18.132;2023-02-18T00:57:38;11.20;;;1.40;;
57317;SDS011;43157;50.982;18.132;2023-02-18T01:00:05;8.10;;;1.50;;
57317;SDS011;43157;50.982;18.132;2023-02-18T01:02:32;4.90;;;0.80;;
57317;SDS011;43157;50.982;18.132;2023-02-18T01:04:58;4.90;;;0.80;;
57317;SDS011;43157;50.982;18.132;2023-02-18T01:07:23;7.00;;;1.40;;
57317;SDS011;43157;50.982;18.132;2023-02-18T01:09:49;4.90;;;1.00;;
57317;SDS011;43157;50.982;18.132;2023-02-18T01:12:14;5.40;;;0.90;;
57317;SDS011;43157;50.982;18.132;2023-02-18T01:14:40;6.10;;;1.30;;
57317;SDS011;43157;50.982;18.132;2023-02-18T01:17:06;8.90;;;1.00;;
57317;SDS011;43157;50.982;18.132;2023-02-18T01:19:32;5.20;;;0.80;;
57317;SDS011;43157;50.982;18.132;2023-02-18T01:21:58;5.00;;;1.00;;
57317;SDS011;43157;50.982;18.132;2023-02-18T01:24:23;2.40;;;0.50;;
57317;SDS011;43157;50.982;18.132;2023-02-18T01:26:49;3.20;;;0.60;;
57317;SDS011;43157;50.982;18.132;2023-02-18T01:29:15;3.80;;;0.60;;
57317;SDS011;43157;50.982;18.132;2023-02-18T01:31:40;1.50;;;0.30;;
57317;SDS011;43157;50.982;18.132;2023-02-18T01:34:06;5.30;;;1.00;;
57317;SDS011;43157;50.982;18.132;2023-02-18T01:36:32;3.40;;;0.80;;
57317;SDS011;43157;50.982;18.132;2023-02-18T01:38:57;4.50;;;0.50;;
57317;SDS011;43157;50.982;18.132;2023-02-18T01:41:25;4.30;;;0.80;;
57317;SDS011;43157;50.982;18.132;2023-02-18T01:46:57;4.30;;;0.70;;
57317;SDS011;43157;50.982;18.132;2023-02-18T01:49:27;6.10;;;0.90;;
57317;SDS011;43157;50.982;18.132;2023-02-18T01:52:40;6.60;;;0.80;;
57317;SDS011;43157;50.982;18.132;2023-02-18T01:54:48;5.60;;;0.70;;
57317;SDS011;43157;50.982;18.132;2023-02-18T01:57:36;3.20;;;0.50;;
57317;SDS011;43157;50.982;18.132;2023-02-18T02:00:06;3.00;;;0.50;;
57317;SDS011;43157;50.982;18.132;2023-02-18T02:02:36;2.20;;;0.40;;
57317;SDS011;43157;50.982;18.132;2023-02-18T02:05:04;2.30;;;0.30;;
57317;SDS011;43157;50.982;18.132;2023-02-18T02:07:30;4.70;;;0.70;;
57317;SDS011;43157;50.982;18.132;2023-02-18T02:09:56;5.80;;;0.90;;
57317;SDS011;43157;50.982;18.132;2023-02-18T02:12:27;3.80;;;0.40;;
57317;SDS011;43157;50.982;18.132;2023-02-18T02:26:02;4.60;;;0.50;;
57317;SDS011;43157;50.982;18.132;2023-02-18T02:28:58;4.90;;;0.70;;
57317;SDS011;43157;50.982;18.132;2023-02-18T02:50:44;3.50;;;0.30;;
57317;SDS011;43157;50.982;18.132;2023-02-18T02:53:18;2.80;;;0.40;;
57317;SDS011;43157;50.982;18.132;2023-02-18T02:55:47;3.80;;;0.60;;
57317;SDS011;43157;50.982;18.132;2023-02-18T02:58:14;4.80;;;0.50;;
57317;SDS011;43157;50.982;18.132;2023-02-18T03:06:23;5.70;;;0.50;;
57317;SDS011;43157;50.982;18.132;2023-02-18T03:11:51;3.80;;;0.50;;
57317;SDS011;43157;50.982;18.132;2023-02-18T03:14:33;4.50;;;0.70;;
57317;SDS011;43157;50.982;18.132;2023-02-18T03:17:19;4.50;;;0.40;;
57317;SDS011;43157;50.982;18.132;2023-02-18T03:19:54;6.40;;;1.30;;
57317;SDS011;43157;50.982;18.132;2023-02-18T03:22:24;8.80;;;1.20;;
57317;SDS011;43157;50.982;18.132;2023-02-18T03:24:54;2.70;;;0.50;;
57317;SDS011;43157;50.982;18.132;2023-02-18T03:27:26;8.40;;;1.30;;
57317;SDS011;43157;50.982;18.132;2023-02-18T03:30:15;12.20;;;1.80;;
57317;SDS011;43157;50.982;18.132;2023-02-18T03:32:57;7.00;;;0.90;;
57317;SDS011;43157;50.982;18.132;2023-02-18T03:35:25;4.60;;;0.60;;
57317;SDS011;43157;50.982;18.132;2023-02-18T03:38:14;6.90;;;0.70;;
57317;SDS011;43157;50.982;18.132;2023-02-18T03:40:39;3.70;;;0.60;;
57317;SDS011;43157;50.982;18.132;2023-02-18T03:43:06;6.90;;;0.70;;
57317;SDS011;43157;50.982;18.132;2023-02-18T03:45:31;4.50;;;0.50;;
57317;SDS011;43157;50.982;18.132;2023-02-18T03:47:57;6.10;;;0.60;;
57317;SDS011;43157;50.982;18.132;2023-02-18T03:50:23;6.50;;;0.90;;
57317;SDS011;43157;50.982;18.132;2023-02-18T03:52:48;5.20;;;0.60;;
57317;SDS011;43157;50.982;18.132;2023-02-18T03:55:15;5.30;;;0.90;;
57317;SDS011;43157;50.982;18.132;2023-02-18T03:57:40;4.60;;;0.60;;
57317;SDS011;43157;50.982;18.132;2023-02-18T04:00:07;6.70;;;0.70;;
57317;SDS011;43157;50.982;18.132;2023-02-18T04:02:34;4.50;;;0.50;;
57317;SDS011;43157;50.982;18.132;2023-02-18T04:05:00;7.20;;;0.90;;
57317;SDS011;43157;50.982;18.132;2023-02-18T04:07:26;7.70;;;0.80;;
57317;SDS011;43157;50.982;18.132;2023-02-18T04:09:51;4.70;;;0.90;;
57317;SDS011;43157;50.982;18.132;2023-02-18T04:12:17;7.60;;;1.00;;
57317;SDS011;43157;50.982;18.132;2023-02-18T04:14:44;6.50;;;0.90;;
57317;SDS011;43157;50.982;18.132;2023-02-18T04:17:10;5.40;;;0.80;;
57317;SDS011;43157;50.982;18.132;2023-02-18T04:19:36;13.60;;;2.20;;
57317;SDS011;43157;50.982;18.132;2023-02-18T04:22:02;10.00;;;1.50;;
57317;SDS011;43157;50.982;18.132;2023-02-18T04:24:27;10.00;;;1.20;;
57317;SDS011;43157;50.982;18.132;2023-02-18T04:26:53;7.10;;;1.20;;
57317;SDS011;43157;50.982;18.132;2023-02-18T04:29:18;6.80;;;0.80;;
57317;SDS011;43157;50.982;18.132;2023-02-18T04:31:44;6.20;;;0.50;;
57317;SDS011;43157;50.982;18.132;2023-02-18T04:34:10;5.30;;;0.70;;
57317;SDS011;43157;50.982;18.132;2023-02-18T04:36:35;5.90;;;0.50;;
57317;SDS011;43157;50.982;18.132;2023-02-18T04:39:01;5.00;;;0.60;;
57317;SDS011;43157;50.982;18.132;2023-02-18T04:41:27;3.50;;;0.60;;
57317;SDS011;43157;50.982;18.132;2023-02-18T04:43:52;5.30;;;0.40;;
57317;SDS011;43157;50.982;18.132;2023-02-18T04:46:18;2.10;;;0.30;;
57317;SDS011;43157;50.982;18.132;2023-02-18T04:48:44;1.50;;;0.30;;
57317;SDS011;43157;50.982;18.132;2023-02-18T04:51:09;2.60;;;0.60;;
57317;SDS011;43157;50.982;18.132;2023-02-18T04:53:35;4.20;;;0.70;;
57317;SDS011;43157;50.982;18.132;2023-02-18T04:56:00;5.20;;;0.60;;
57317;SDS011;43157;50.982;18.132;2023-02-18T04:58:26;5.60;;;0.70;;
57317;SDS011;43157;50.982;18.132;2023-02-18T05:14:00;3.90;;;0.60;;
57317;SDS011;43157;50.982;18.132;2023-02-18T05:16:26;6.30;;;0.60;;
57317;SDS011;43157;50.982;18.132;2023-02-18T05:18:51;6.50;;;0.70;;
57317;SDS011;43157;50.982;18.132;2023-02-18T05:21:17;5.40;;;0.60;;
57317;SDS011;43157;50.982;18.132;2023-02-18T05:23:42;7.30;;;0.80;;
57317;SDS011;43157;50.982;18.132;2023-02-18T05:26:08;4.80;;;0.70;;
57317;SDS011;43157;50.982;18.132;2023-02-18T05:28:34;4.20;;;0.60;;
57317;SDS011;43157;50.982;18.132;2023-02-18T05:31:00;6.30;;;0.80;;
57317;SDS011;43157;50.982;18.132;2023-02-18T05:33:25;3.30;;;0.50;;
57317;SDS011;43157;50.982;18.132;2023-02-18T05:35:51;5.40;;;0.50;;
57317;SDS011;43157;50.982;18.132;2023-02-18T05:38:16;3.70;;;0.80;;
57317;SDS011;43157;50.982;18.132;2023-02-18T05:40:42;4.80;;;0.60;;
57317;SDS011;43157;50.982;18.132;2023-02-18T05:43:08;6.20;;;0.70;;
57317;SDS011;43157;50.982;18.132;2023-02-18T05:45:33;11.30;;;2.90;;
57317;SDS011;43157;50.982;18.132;2023-02-18T05:47:59;10.00;;;2.20;;
57317;SDS011;43157;50.982;18.132;2023-02-18T05:50:25;14.30;;;2.30;;
57317;SDS011;43157;50.982;18.132;2023-02-18T05:52:50;15.80;;;2.30;;
57317;SDS011;43157;50.982;18.132;2023-02-18T05:55:16;11.30;;;1.70;;
57317;SDS011;43157;50.982;18.132;2023-02-18T05:57:42;16.70;;;4.00;;
57317;SDS011;43157;50.982;18.132;2023-02-18T06:00:08;10.60;;;2.90;;
57317;SDS011;43157;50.982;18.132;2023-02-18T06:02:35;7.80;;;1.20;;
57317;SDS011;43157;50.982;18.132;2023-02-18T06:05:01;6.90;;;1.70;;
57317;SDS011;43157;50.982;18.132;2023-02-18T06:07:28;9.90;;;1.60;;
57317;SDS011;43157;50.982;18.132;2023-02-18T06:09:53;10.10;;;2.10;;
57317;SDS011;43157;50.982;18.132;2023-02-18T06:12:19;8.30;;;1.10;;
57317;SDS011;43157;50.982;18.132;2023-02-18T06:14:45;18.40;;;5.20;;
57317;SDS011;43157;50.982;18.132;2023-02-18T06:17:11;10.90;;;1.80;;
57317;SDS011;43157;50.982;18.132;2023-02-18T06:19:37;9.60;;;1.70;;
57317;SDS011;43157;50.982;18.132;2023-02-18T06:22:03;7.40;;;1.00;;
57317;SDS011;43157;50.982;18.132;2023-02-18T06:24:29;9.10;;;1.40;;
57317;SDS011;43157;50.982;18.132;2023-02-18T06:26:55;9.30;;;1.10;;
57317;SDS011;43157;50.982;18.132;2023-02-18T06:29:21;8.50;;;1.30;;
57317;SDS011;43157;50.982;18.132;2023-02-18T06:31:46;8.30;;;1.30;;
57317;SDS011;43157;50.982;18.132;2023-02-18T06:34:12;9.10;;;1.20;;
57317;SDS011;43157;50.982;18.132;2023-02-18T06:36:37;8.20;;;1.00;;
57317;SDS011;43157;50.982;18.132;2023-02-18T06:39:04;9.00;;;0.90;;
57317;SDS011;43157;50.982;18.132;2023-02-18T06:41:30;7.30;;;0.70;;
57317;SDS011;43157;50.982;18.132;2023-02-18T06:43:55;5.30;;;0.90;;
57317;SDS011;43157;50.982;18.132;2023-02-18T06:46:21;13.90;;;3.20;;
57317;SDS011;43157;50.982;18.132;2023-02-18T06:48:47;11.60;;;3.60;;
57317;SDS011;43157;50.982;18.132;2023-02-18T06:51:12;11.80;;;3.80;;
57317;SDS011;43157;50.982;18.132;2023-02-18T06:53:40;10.60;;;2.30;;
57317;SDS011;43157;50.982;18.132;2023-02-18T06:56:08;5.80;;;1.00;;
57317;SDS011;43157;50.982;18.132;2023-02-18T06:58:34;3.60;;;0.80;;
57317;SDS011;43157;50.982;18.132;2023-02-18T07:00:59;7.50;;;1.20;;
57317;SDS011;43157;50.982;18.132;2023-02-18T07:03:25;6.60;;;1.00;;
57317;SDS011;43157;50.982;18.132;2023-02-18T07:05:51;4.50;;;0.80;;
57317;SDS011;43157;50.982;18.132;2023-02-18T07:08:16;8.00;;;1.20;;
57317;SDS011;43157;50.982;18.132;2023-02-18T07:10:42;11.50;;;1.60;;
57317;SDS011;43157;50.982;18.132;2023-02-18T07:13:08;11.70;;;3.10;;
57317;SDS011;43157;50.982;18.132;2023-02-18T07:15:34;18.10;;;4.50;;
57317;SDS011;43157;50.982;18.132;2023-02-18T07:18:00;17.00;;;3.70;;
57317;SDS011;43157;50.982;18.132;2023-02-18T07:20:26;8.40;;;1.90;;
57317;SDS011;43157;50.982;18.132;2023-02-18T07:22:52;8.80;;;2.30;;
57317;SDS011;43157;50.982;18.132;2023-02-18T07:25:18;12.10;;;3.00;;
57317;SDS011;43157;50.982;18.132;2023-02-18T07:27:44;11.00;;;3.60;;
57317;SDS011;43157;50.982;18.132;2023-02-18T07:30:09;13.30;;;4.80;;
57317;SDS011;43157;50.982;18.132;2023-02-18T07:32:36;16.40;;;5.20;;
57317;SDS011;43157;50.982;18.132;2023-02-18T07:35:02;12.70;;;3.50;;
57317;SDS011;43157;50.982;18.132;2023-02-18T07:37:28;14.90;;;3.70;;
57317;SDS011;43157;50.982;18.132;2023-02-18T07:39:54;17.50;;;4.90;;
57317;SDS011;43157;50.982;18.132;2023-02-18T07:42:20;9.50;;;1.90;;
57317;SDS011;43157;50.982;18.132;2023-02-18T07:44:45;9.00;;;1.70;;
57317;SDS011;43157;50.982;18.132;2023-02-18T07:47:12;12.70;;;2.90;;
57317;SDS011;43157;50.982;18.132;2023-02-18T07:49:39;9.60;;;1.70;;
57317;SDS011;43157;50.982;18.132;2023-02-18T07:52:05;6.30;;;1.20;;
57317;SDS011;43157;50.982;18.132;2023-02-18T07:54:31;7.10;;;1.50;;
57317;SDS011;43157;50.982;18.132;2023-02-18T07:56:56;10.80;;;1.50;;
57317;SDS011;43157;50.982;18.132;2023-02-18T07:59:22;14.60;;;3.70;;
57317;SDS011;43157;50.982;18.132;2023-02-18T08:01:48;11.40;;;2.80;;
57317;SDS011;43157;50.982;18.132;2023-02-18T08:04:13;17.80;;;4.90;;
57317;SDS011;43157;50.982;18.132;2023-02-18T08:06:40;16.90;;;4.50;;
57317;SDS011;43157;50.982;18.132;2023-02-18T08:09:07;18.00;;;5.60;;
57317;SDS011;43157;50.982;18.132;2023-02-18T08:11:33;18.30;;;3.80;;
57317;SDS011;43157;50.982;18.132;2023-02-18T08:13:59;16.60;;;5.10;;
57317;SDS011;43157;50.982;18.132;2023-02-18T08:16:25;11.10;;;2.30;;
57317;SDS011;43157;50.982;18.132;2023-02-18T08:18:51;10.60;;;2.80;;
57317;SDS011;43157;50.982;18.132;2023-02-18T08:21:17;11.80;;;2.90;;
57317;SDS011;43157;50.982;18.132;2023-02-18T08:23:44;14.50;;;4.30;;
57317;SDS011;43157;50.982;18.132;2023-02-18T08:26:10;14.60;;;3.10;;
57317;SDS011;43157;50.982;18.132;2023-02-18T08:28:36;12.20;;;3.00;;
57317;SDS011;43157;50.982;18.132;2023-02-18T08:31:01;19.20;;;4.50;;
57317;SDS011;43157;50.982;18.132;2023-02-18T08:33:27;21.10;;;6.00;;
57317;SDS011;43157;50.982;18.132;2023-02-18T08:35:53;14.20;;;3.30;;
57317;SDS011;43157;50.982;18.132;2023-02-18T08:38:20;10.00;;;2.10;;
57317;SDS011;43157;50.982;18.132;2023-02-18T08:40:46;13.20;;;3.60;;
57317;SDS011;43157;50.982;18.132;2023-02-18T08:43:13;11.40;;;2.60;;
57317;SDS011;43157;50.982;18.132;2023-02-18T08:45:40;10.00;;;2.10;;
57317;SDS011;43157;50.982;18.132;2023-02-18T08:48:06;8.90;;;1.60;;
57317;SDS011;43157;50.982;18.132;2023-02-18T08:50:32;10.40;;;2.10;;
57317;SDS011;43157;50.982;18.132;2023-02-18T08:52:59;14.70;;;4.30;;
57317;SDS011;43157;50.982;18.132;2023-02-18T08:55:30;13.30;;;3.10;;
57317;SDS011;43157;50.982;18.132;2023-02-18T08:57:57;12.20;;;2.90;;
57317;SDS011;43157;50.982;18.132;2023-02-18T09:00:24;15.30;;;4.40;;
57317;SDS011;43157;50.982;18.132;2023-02-18T09:02:49;10.70;;;3.20;;
57317;SDS011;43157;50.982;18.132;2023-02-18T09:05:15;11.10;;;2.10;;
57317;SDS011;43157;50.982;18.132;2023-02-18T09:07:41;5.80;;;1.30;;
57317;SDS011;43157;50.982;18.132;2023-02-18T09:10:08;11.00;;;1.70;;
57317;SDS011;43157;50.982;18.132;2023-02-18T09:12:36;7.20;;;1.40;;
57317;SDS011;43157;50.982;18.132;2023-02-18T09:15:02;8.10;;;1.50;;
57317;SDS011;43157;50.982;18.132;2023-02-18T09:17:29;10.10;;;1.80;;
57317;SDS011;43157;50.982;18.132;2023-02-18T09:19:55;14.10;;;3.00;;
57317;SDS011;43157;50.982;18.132;2023-02-18T09:22:21;8.60;;;1.80;;
57317;SDS011;43157;50.982;18.132;2023-02-18T09:24:46;16.30;;;3.90;;
57317;SDS011;43157;50.982;18.132;2023-02-18T09:27:12;9.10;;;2.30;;
57317;SDS011;43157;50.982;18.132;2023-02-18T09:29:38;8.90;;;2.20;;
57317;SDS011;43157;50.982;18.132;2023-02-18T09:32:05;3.80;;;1.00;;
57317;SDS011;43157;50.982;18.132;2023-02-18T09:34:32;9.10;;;2.00;;
57317;SDS011;43157;50.982;18.132;2023-02-18T09:36:58;11.40;;;1.90;;
57317;SDS011;43157;50.982;18.132;2023-02-18T09:39:24;7.60;;;1.70;;
57317;SDS011;43157;50.982;18.132;2023-02-18T09:41:53;9.70;;;1.50;;
57317;SDS011;43157;50.982;18.132;2023-02-18T09:49:50;14.40;;;2.80;;
57317;SDS011;43157;50.982;18.132;2023-02-18T09:52:24;10.90;;;2.30;;
57317;SDS011;43157;50.982;18.132;2023-02-18T09:54:54;7.80;;;1.20;;
57317;SDS011;43157;50.982;18.132;2023-02-18T09:57:28;10.20;;;2.20;;
57317;SDS011;43157;50.982;18.132;2023-02-18T10:00:00;11.10;;;3.40;;
57317;SDS011;43157;50.982;18.132;2023-02-18T10:02:31;12.10;;;3.00;;
57317;SDS011;43157;50.982;18.132;2023-02-18T10:04:57;18.60;;;4.60;;
57317;SDS011;43157;50.982;18.132;2023-02-18T10:07:24;10.70;;;2.90;;
57317;SDS011;43157;50.982;18.132;2023-02-18T10:09:55;7.20;;;2.20;;
57317;SDS011;43157;50.982;18.132;2023-02-18T10:12:23;12.50;;;3.10;;
57317;SDS011;43157;50.982;18.132;2023-02-18T10:14:51;7.80;;;1.60;;
57317;SDS011;43157;50.982;18.132;2023-02-18T10:17:27;7.30;;;1.50;;
57317;SDS011;43157;50.982;18.132;2023-02-18T10:19:55;6.50;;;1.70;;
57317;SDS011;43157;50.982;18.132;2023-02-18T10:22:23;9.00;;;1.90;;
57317;SDS011;43157;50.982;18.132;2023-02-18T10:24:54;9.60;;;1.70;;
57317;SDS011;43157;50.982;18.132;2023-02-18T10:27:29;9.20;;;2.00;;
57317;SDS011;43157;50.982;18.132;2023-02-18T10:30:01;5.90;;;1.10;;
57317;SDS011;43157;50.982;18.132;2023-02-18T10:32:50;11.30;;;3.40;;
57317;SDS011;43157;50.982;18.132;2023-02-18T10:35:23;16.10;;;4.60;;
57317;SDS011;43157;50.982;18.132;2023-02-18T10:43:24;10.20;;;2.60;;
57317;SDS011;43157;50.982;18.132;2023-02-18T10:51:51;14.20;;;3.00;;
57317;SDS011;43157;50.982;18.132;2023-02-18T10:54:23;11.20;;;2.20;;
57317;SDS011;43157;50.982;18.132;2023-02-18T10:56:50;13.40;;;3.70;;
57317;SDS011;43157;50.982;18.132;2023-02-18T10:59:22;6.80;;;1.10;;
57317;SDS011;43157;50.982;18.132;2023-02-18T11:01:55;8.90;;;2.10;;
57317;SDS011;43157;50.982;18.132;2023-02-18T11:04:36;11.00;;;2.20;;
57317;SDS011;43157;50.982;18.132;2023-02-18T11:07:09;8.80;;;1.70;;
57317;SDS011;43157;50.982;18.132;2023-02-18T11:09:48;10.90;;;3.10;;
57317;SDS011;43157;50.982;18.132;2023-02-18T11:14:49;15.80;;;4.40;;
57317;SDS011;43157;50.982;18.132;2023-02-18T11:17:35;15.50;;;4.30;;
57317;SDS011;43157;50.982;18.132;2023-02-18T11:25:40;14.10;;;3.90;;
57317;SDS011;43157;50.982;18.132;2023-02-18T11:28:29;9.40;;;2.30;;
57317;SDS011;43157;50.982;18.132;2023-02-18T11:30:54;16.10;;;4.80;;
57317;SDS011;43157;50.982;18.132;2023-02-18T11:35:54;14.60;;;3.70;;
57317;SDS011;43157;50.982;18.132;2023-02-18T11:39:03;19.50;;;5.00;;
57317;SDS011;43157;50.982;18.132;2023-02-18T11:41:21;12.90;;;3.60;;
57317;SDS011;43157;50.982;18.132;2023-02-18T11:43:54;19.90;;;7.40;;
57317;SDS011;43157;50.982;18.132;2023-02-18T11:46:21;10.90;;;3.60;;
57317;SDS011;43157;50.982;18.132;2023-02-18T11:48:48;12.20;;;3.40;;
57317;SDS011;43157;50.982;18.132;2023-02-18T11:51:15;8.50;;;2.00;;
57317;SDS011;43157;50.982;18.132;2023-02-18T11:53:54;11.90;;;2.30;;
57317;SDS011;43157;50.982;18.132;2023-02-18T11:56:24;11.70;;;2.30;;
57317;SDS011;43157;50.982;18.132;2023-02-18T11:58:50;9.40;;;2.10;;
57317;SDS011;43157;50.982;18.132;2023-02-18T12:04:17;13.40;;;4.50;;
57317;SDS011;43157;50.982;18.132;2023-02-18T12:09:29;14.70;;;3.90;;
57317;SDS011;43157;50.982;18.132;2023-02-18T12:12:00;14.10;;;5.40;;
57317;SDS011;43157;50.982;18.132;2023-02-18T12:14:30;13.40;;;5.60;;
57317;SDS011;43157;50.982;18.132;2023-02-18T12:25:21;18.70;;;6.70;;
57317;SDS011;43157;50.982;18.132;2023-02-18T12:30:44;21.50;;;7.20;;
57317;SDS011;43157;50.982;18.132;2023-02-18T12:39:28;12.20;;;4.10;;
57317;SDS011;43157;50.982;18.132;2023-02-18T12:47:22;12.80;;;4.60;;
57317;SDS011;43157;50.982;18.132;2023-02-18T13:14:36;15.70;;;4.40;;
57317;SDS011;43157;50.982;18.132;2023-02-18T13:17:11;20.60;;;6.40;;
57317;SDS011;43157;50.982;18.132;2023-02-18T13:19:43;15.00;;;4.90;;
57317;SDS011;43157;50.982;18.132;2023-02-18T13:22:14;18.90;;;5.90;;
57317;SDS011;43157;50.982;18.132;2023-02-18T13:24:42;29.00;;;9.20;;
57317;SDS011;43157;50.982;18.132;2023-02-18T13:30:44;44.80;;;16.80;;
57317;SDS011;43157;50.982;18.132;2023-02-18T13:35:42;34.70;;;11.60;;
57317;SDS011;43157;50.982;18.132;2023-02-18T13:38:15;29.30;;;10.60;;
57317;SDS011;43157;50.982;18.132;2023-02-18T13:40:48;14.20;;;4.80;;
57317;SDS011;43157;50.982;18.132;2023-02-18T13:43:18;11.80;;;4.20;;
57317;SDS011;43157;50.982;18.132;2023-02-18T13:46:30;13.50;;;5.00;;
57317;SDS011;43157;50.982;18.132;2023-02-18T13:48:46;12.90;;;4.40;;
57317;SDS011;43157;50.982;18.132;2023-02-18T13:51:30;16.00;;;5.40;;
57317;SDS011;43157;50.982;18.132;2023-02-18T13:54:24;20.70;;;8.60;;
57317;SDS011;43157;50.982;18.132;2023-02-18T13:56:57;24.80;;;9.70;;
57317;SDS011;43157;50.982;18.132;2023-02-18T13:59:46;22.00;;;10.40;;
57317;SDS011;43157;50.982;18.132;2023-02-18T14:09:43;16.10;;;5.80;;
57317;SDS011;43157;50.982;18.132;2023-02-18T14:12:23;17.00;;;7.00;;
57317;SDS011;43157;50.982;18.132;2023-02-18T14:14:51;15.50;;;5.70;;
57317;SDS011;43157;50.982;18.132;2023-02-18T14:19:51;11.90;;;5.00;;
57317;SDS011;43157;50.982;18.132;2023-02-18T14:22:23;15.50;;;5.40;;
57317;SDS011;43157;50.982;18.132;2023-02-18T14:24:51;20.20;;;6.20;;
57317;SDS011;43157;50.982;18.132;2023-02-18T14:27:21;21.70;;;6.60;;
57317;SDS011;43157;50.982;18.132;2023-02-18T14:29:49;18.00;;;6.60;;
57317;SDS011;43157;50.982;18.132;2023-02-18T14:32:16;18.00;;;5.30;;
57317;SDS011;43157;50.982;18.132;2023-02-18T14:48:44;19.60;;;8.70;;
57317;SDS011;43157;50.982;18.132;2023-02-18T14:51:15;19.90;;;7.80;;
57317;SDS011;43157;50.982;18.132;2023-02-18T14:53:44;16.70;;;7.40;;
57317;SDS011;43157;50.982;18.132;2023-02-18T14:56:12;19.70;;;6.80;;
57317;SDS011;43157;50.982;18.132;2023-02-18T14:58:42;14.10;;;5.60;;
57317;SDS011;43157;50.982;18.132;2023-02-18T15:01:20;22.90;;;10.20;;
57317;SDS011;43157;50.982;18.132;2023-02-18T15:03:50;16.10;;;7.00;;
57317;SDS011;43157;50.982;18.132;2023-02-18T15:06:25;14.80;;;5.80;;
57317;SDS011;43157;50.982;18.132;2023-02-18T15:08:52;14.20;;;5.40;;
57317;SDS011;43157;50.982;18.132;2023-02-18T15:11:18;9.80;;;3.50;;
57317;SDS011;43157;50.982;18.132;2023-02-18T15:13:47;13.90;;;4.10;;
57317;SDS011;43157;50.982;18.132;2023-02-18T15:16:14;19.00;;;5.80;;
57317;SDS011;43157;50.982;18.132;2023-02-18T15:18:42;9.90;;;3.60;;
57317;SDS011;43157;50.982;18.132;2023-02-18T15:26:51;17.30;;;6.90;;
57317;SDS011;43157;50.982;18.132;2023-02-18T15:29:19;14.30;;;5.10;;
57317;SDS011;43157;50.982;18.132;2023-02-18T15:31:47;14.20;;;5.00;;
57317;SDS011;43157;50.982;18.132;2023-02-18T15:36:54;13.70;;;4.60;;
57317;SDS011;43157;50.982;18.132;2023-02-18T15:39:21;15.40;;;6.10;;
57317;SDS011;43157;50.982;18.132;2023-02-18T15:41:51;19.20;;;6.70;;
57317;SDS011;43157;50.982;18.132;2023-02-18T15:44:19;17.60;;;6.40;;
57317;SDS011;43157;50.982;18.132;2023-02-18T15:46:47;16.40;;;6.10;;
57317;SDS011;43157;50.982;18.132;2023-02-18T15:49:13;17.10;;;6.80;;
57317;SDS011;43157;50.982;18.132;2023-02-18T15:51:40;19.70;;;8.20;;
57317;SDS011;43157;50.982;18.132;2023-02-18T15:54:10;21.30;;;8.40;;
57317;SDS011;43157;50.982;18.132;2023-02-18T15:56:39;30.80;;;10.60;;
57317;SDS011;43157;50.982;18.132;2023-02-18T15:59:28;26.50;;;11.00;;
57317;SDS011;43157;50.982;18.132;2023-02-18T16:04:33;18.50;;;8.30;;
57317;SDS011;43157;50.982;18.132;2023-02-18T16:07:03;26.00;;;11.10;;
57317;SDS011;43157;50.982;18.132;2023-02-18T16:09:41;22.20;;;9.50;;
57317;SDS011;43157;50.982;18.132;2023-02-18T16:12:12;20.50;;;7.90;;
57317;SDS011;43157;50.982;18.132;2023-02-18T16:15:02;14.30;;;5.60;;
57317;SDS011;43157;50.982;18.132;2023-02-18T16:17:29;19.30;;;7.30;;
57317;SDS011;43157;50.982;18.132;2023-02-18T16:19:59;19.90;;;7.60;;
57317;SDS011;43157;50.982;18.132;2023-02-18T16:24:57;17.90;;;6.40;;
57317;SDS011;43157;50.982;18.132;2023-02-18T16:27:49;14.80;;;6.30;;
57317;SDS011;43157;50.982;18.132;2023-02-18T16:30:27;17.30;;;7.10;;
57317;SDS011;43157;50.982;18.132;2023-02-18T16:32:55;13.70;;;4.70;;
57317;SDS011;43157;50.982;18.132;2023-02-18T16:35:22;14.80;;;5.70;;
57317;SDS011;43157;50.982;18.132;2023-02-18T16:37:49;14.80;;;5.90;;
57317;SDS011;43157;50.982;18.132;2023-02-18T16:40:29;12.10;;;5.20;;
57317;SDS011;43157;50.982;18.132;2023-02-18T16:43:13;17.20;;;6.60;;
57317;SDS011;43157;50.982;18.132;2023-02-18T16:45:47;14.70;;;6.90;;
57317;SDS011;43157;50.982;18.132;2023-02-18T16:50:47;12.40;;;5.80;;
57317;SDS011;43157;50.982;18.132;2023-02-18T16:53:14;13.40;;;5.50;;
57317;SDS011;43157;50.982;18.132;2023-02-18T16:55:40;13.80;;;5.50;;
57317;SDS011;43157;50.982;18.132;2023-02-18T16:58:05;16.60;;;5.80;;
57317;SDS011;43157;50.982;18.132;2023-02-18T17:00:31;12.10;;;3.80;;
57317;SDS011;43157;50.982;18.132;2023-02-18T17:02:57;11.90;;;4.40;;
57317;SDS011;43157;50.982;18.132;2023-02-18T17:05:25;13.40;;;4.70;;
57317;SDS011;43157;50.982;18.132;2023-02-18T17:07:53;11.10;;;4.00;;
57317;SDS011;43157;50.982;18.132;2023-02-18T17:10:19;15.40;;;4.20;;
57317;SDS011;43157;50.982;18.132;2023-02-18T17:12:45;11.20;;;4.50;;
57317;SDS011;43157;50.982;18.132;2023-02-18T17:15:22;11.90;;;3.60;;
57317;SDS011;43157;50.982;18.132;2023-02-18T17:17:49;9.60;;;2.80;;
57317;SDS011;43157;50.982;18.132;2023-02-18T17:20:15;8.40;;;1.90;;
57317;SDS011;43157;50.982;18.132;2023-02-18T17:22:41;11.00;;;2.60;;
57317;SDS011;43157;50.982;18.132;2023-02-18T17:25:11;10.00;;;2.00;;
57317;SDS011;43157;50.982;18.132;2023-02-18T17:27:40;7.20;;;1.60;;
57317;SDS011;43157;50.982;18.132;2023-02-18T17:30:06;6.20;;;1.90;;
57317;SDS011;43157;50.982;18.132;2023-02-18T17:32:32;7.40;;;1.90;;
57317;SDS011;43157;50.982;18.132;2023-02-18T17:34:58;10.00;;;2.80;;
57317;SDS011;43157;50.982;18.132;2023-02-18T17:37:24;9.30;;;2.90;;
57317;SDS011;43157;50.982;18.132;2023-02-18T17:39:50;6.30;;;1.70;;